createdAt,value
2019-04-30T00:00:02.840Z,87
2019-04-30T00:01:19.102Z,87
2019-04-30T00:02:05.881Z,87
2019-04-30T00:03:15.287Z,87
2019-04-30T00:04:03.586Z,87
2019-04-30T00:05:05.685Z,87
2019-04-30T00:06:03.364Z,87
2019-04-30T00:07:14.512Z,87
2019-04-30T00:08:03.429Z,87
2019-04-30T00:09:14.040Z,87
2019-04-30T00:10:06.199Z,87
2019-04-30T00:11:02.981Z,87
2019-04-30T00:12:05.785Z,87
2019-04-30T00:13:03.433Z,87
2019-04-30T00:14:05.222Z,87
2019-04-30T00:15:03.632Z,87
2019-04-30T00:16:05.562Z,87
2019-04-30T00:17:03.322Z,88
2019-04-30T00:18:05.652Z,88
2019-04-30T00:19:03.393Z,87
2019-04-30T00:20:05.482Z,87
2019-04-30T00:21:14.140Z,88
2019-04-30T00:22:03.257Z,88
2019-04-30T00:23:05.357Z,88
2019-04-30T00:24:10.521Z,88
2019-04-30T00:25:05.498Z,88
2019-04-30T00:26:10.677Z,88
2019-04-30T00:27:05.315Z,88
2019-04-30T00:28:08.965Z,88
2019-04-30T00:29:02.782Z,88
2019-04-30T00:30:09.287Z,88
2019-04-30T00:31:03.025Z,87
2019-04-30T00:32:08.164Z,88
2019-04-30T00:33:03.128Z,87
2019-04-30T00:34:05.229Z,87
2019-04-30T00:35:03.448Z,87
2019-04-30T00:36:05.213Z,87
2019-04-30T00:37:18.523Z,87
2019-04-30T00:38:05.278Z,87
2019-04-30T00:39:16.686Z,87
2019-04-30T00:40:02.879Z,87
2019-04-30T00:41:10.354Z,87
2019-04-30T00:42:05.135Z,87
2019-04-30T00:43:09.256Z,87
2019-04-30T00:44:02.872Z,87
2019-04-30T00:45:10.265Z,87
2019-04-30T00:46:05.104Z,87
2019-04-30T00:47:08.540Z,87
2019-04-30T00:48:02.978Z,87
2019-04-30T00:49:24.122Z,87
2019-04-30T00:50:05.139Z,87
2019-04-30T00:51:21.641Z,87
2019-04-30T00:52:02.909Z,87
2019-04-30T00:53:16.585Z,87
2019-04-30T00:54:03.295Z,87
2019-04-30T00:55:09.415Z,87
2019-04-30T00:56:05.927Z,87
2019-04-30T00:57:07.882Z,87
2019-04-30T00:58:03.620Z,87
2019-04-30T00:59:10.790Z,87
2019-04-30T01:00:05.227Z,87
2019-04-30T01:01:08.274Z,87
2019-04-30T01:02:03.755Z,87
2019-04-30T01:03:09.645Z,87
2019-04-30T01:04:05.248Z,87
2019-04-30T01:05:09.261Z,87
2019-04-30T01:06:05.569Z,87
2019-04-30T01:07:08.856Z,87
2019-04-30T01:08:07.268Z,87
2019-04-30T01:09:08.872Z,87
2019-04-30T01:10:05.302Z,87
2019-04-30T01:11:09.799Z,87
2019-04-30T01:12:03.133Z,87
2019-04-30T01:13:12.228Z,87
2019-04-30T01:14:03.217Z,87
2019-04-30T01:15:14.712Z,87
2019-04-30T01:16:03.256Z,87
2019-04-30T01:17:12.448Z,87
2019-04-30T01:18:03.082Z,87
2019-04-30T01:19:32.225Z,87
2019-04-30T01:20:02.919Z,87
2019-04-30T01:21:11.428Z,87
2019-04-30T01:22:02.945Z,87
2019-04-30T01:23:11.478Z,87
2019-04-30T01:24:02.593Z,87
2019-04-30T01:25:13.721Z,87
2019-04-30T01:26:03.752Z,87
2019-04-30T01:27:10.845Z,87
2019-04-30T01:28:03.567Z,87
2019-04-30T01:29:03.549Z,87
2019-04-30T01:30:03.470Z,87
2019-04-30T01:31:03.500Z,87
2019-04-30T01:32:01.905Z,87
2019-04-30T01:33:03.047Z,87
2019-04-30T01:34:14.210Z,87
2019-04-30T01:35:03.423Z,87
2019-04-30T01:36:13.485Z,87
2019-04-30T01:37:03.017Z,87
2019-04-30T01:38:12.954Z,87
2019-04-30T01:39:03.236Z,87
2019-04-30T01:40:14.099Z,87
2019-04-30T01:41:03.065Z,87
2019-04-30T01:42:11.618Z,87
2019-04-30T01:43:03.740Z,87
2019-04-30T01:44:12.238Z,87
2019-04-30T01:45:03.802Z,87
2019-04-30T01:46:14.170Z,87
2019-04-30T01:47:03.714Z,88
2019-04-30T01:48:13.001Z,88
2019-04-30T01:49:03.543Z,88
2019-04-30T01:50:05.234Z,88
2019-04-30T01:51:03.565Z,88
2019-04-30T01:52:03.405Z,88
2019-04-30T01:53:13.428Z,88
2019-04-30T01:54:03.380Z,88
2019-04-30T01:55:03.567Z,88
2019-04-30T01:56:03.031Z,88
2019-04-30T01:57:03.158Z,88
2019-04-30T01:58:03.123Z,88
2019-04-30T01:59:03.317Z,88
2019-04-30T02:00:02.916Z,88
2019-04-30T02:01:03.681Z,88
2019-04-30T02:02:03.031Z,88
2019-04-30T02:03:03.032Z,88
2019-04-30T02:04:03.104Z,88
2019-04-30T02:05:03.033Z,88
2019-04-30T02:06:03.123Z,88
2019-04-30T02:07:03.669Z,88
2019-04-30T02:08:03.511Z,88
2019-04-30T02:09:03.985Z,88
2019-04-30T02:10:03.813Z,88
2019-04-30T02:11:03.619Z,88
2019-04-30T02:12:03.650Z,88
2019-04-30T02:13:03.610Z,88
2019-04-30T02:14:03.622Z,88
2019-04-30T02:15:03.804Z,88
2019-04-30T02:16:03.191Z,88
2019-04-30T02:17:02.985Z,88
2019-04-30T02:18:03.242Z,88
2019-04-30T02:19:03.387Z,88
2019-04-30T02:20:03.231Z,88
2019-04-30T02:21:03.042Z,88
2019-04-30T02:22:03.667Z,88
2019-04-30T02:23:03.045Z,88
2019-04-30T02:24:02.979Z,88
2019-04-30T02:25:03.002Z,88
2019-04-30T02:26:03.231Z,88
2019-04-30T02:27:02.991Z,88
2019-04-30T02:28:02.884Z,88
2019-04-30T02:29:03.909Z,88
2019-04-30T02:30:03.117Z,88
2019-04-30T02:31:03.680Z,88
2019-04-30T02:32:03.474Z,88
2019-04-30T02:33:03.789Z,88
2019-04-30T02:34:03.668Z,88
2019-04-30T02:35:03.608Z,88
2019-04-30T02:36:04.224Z,88
2019-04-30T02:37:03.593Z,88
2019-04-30T02:38:03.301Z,88
2019-04-30T02:39:03.422Z,88
2019-04-30T02:40:03.366Z,88
2019-04-30T02:41:03.088Z,88
2019-04-30T02:42:03.121Z,88
2019-04-30T02:43:03.274Z,88
2019-04-30T02:44:03.055Z,88
2019-04-30T02:45:04.400Z,88
2019-04-30T02:46:02.986Z,88
2019-04-30T02:47:02.835Z,88
2019-04-30T02:48:02.938Z,88
2019-04-30T02:49:02.919Z,88
2019-04-30T02:50:22.683Z,89
2019-04-30T02:51:02.761Z,88
2019-04-30T02:52:03.703Z,89
2019-04-30T02:53:03.756Z,88
2019-04-30T02:54:03.697Z,89
2019-04-30T02:55:03.513Z,88
2019-04-30T02:56:03.786Z,89
2019-04-30T02:57:03.663Z,89
2019-04-30T02:58:03.808Z,88
2019-04-30T02:59:04.236Z,89
2019-04-30T03:00:03.522Z,89
2019-04-30T03:01:03.669Z,89
2019-04-30T03:02:03.228Z,89
2019-04-30T03:03:03.551Z,89
2019-04-30T03:04:03.063Z,89
2019-04-30T03:05:03.451Z,89
2019-04-30T03:06:03.120Z,89
2019-04-30T03:07:03.298Z,89
2019-04-30T03:08:02.943Z,89
2019-04-30T03:09:03.142Z,89
2019-04-30T03:10:03.406Z,89
2019-04-30T03:11:03.266Z,89
2019-04-30T03:12:02.894Z,89
2019-04-30T03:13:02.956Z,89
2019-04-30T03:14:03.195Z,89
2019-04-30T03:15:03.100Z,89
2019-04-30T03:16:04.215Z,89
2019-04-30T03:17:02.943Z,89
2019-04-30T03:18:03.724Z,89
2019-04-30T03:19:03.354Z,89
2019-04-30T03:20:03.939Z,89
2019-04-30T03:21:03.804Z,89
2019-04-30T03:22:03.828Z,89
2019-04-30T03:23:03.297Z,89
2019-04-30T03:24:03.130Z,89
2019-04-30T03:25:03.567Z,89
2019-04-30T03:26:02.836Z,89
2019-04-30T03:27:03.164Z,89
2019-04-30T03:28:03.351Z,89
2019-04-30T03:29:03.102Z,89
2019-04-30T03:30:03.208Z,89
2019-04-30T03:31:05.258Z,89
2019-04-30T03:32:03.953Z,89
2019-04-30T03:33:03.603Z,89
2019-04-30T03:34:02.859Z,89
2019-04-30T03:35:03.961Z,89
2019-04-30T03:36:03.250Z,89
2019-04-30T03:37:03.954Z,89
2019-04-30T03:38:03.594Z,89
2019-04-30T03:39:03.707Z,89
2019-04-30T03:40:03.514Z,89
2019-04-30T03:41:03.428Z,89
2019-04-30T03:42:03.738Z,89
2019-04-30T03:43:03.505Z,89
2019-04-30T03:44:26.262Z,89
2019-04-30T03:45:03.417Z,89
2019-04-30T03:46:03.321Z,89
2019-04-30T03:47:03.431Z,89
2019-04-30T03:48:03.526Z,89
2019-04-30T03:49:03.144Z,89
2019-04-30T03:50:03.420Z,89
2019-04-30T03:51:03.305Z,89
2019-04-30T03:52:03.254Z,89
2019-04-30T03:53:03.073Z,89
2019-04-30T03:54:03.115Z,89
2019-04-30T03:55:03.313Z,89
2019-04-30T03:56:03.126Z,89
2019-04-30T03:57:03.139Z,89
2019-04-30T03:58:02.705Z,89
2019-04-30T03:59:03.085Z,89
2019-04-30T04:00:03.080Z,89
2019-04-30T04:01:02.913Z,89
2019-04-30T04:02:02.955Z,89
2019-04-30T04:03:03.048Z,89
2019-04-30T04:04:03.649Z,89
2019-04-30T04:05:03.839Z,89
2019-04-30T04:06:03.707Z,89
2019-04-30T04:07:03.472Z,89
2019-04-30T04:08:03.814Z,89
2019-04-30T04:09:03.395Z,89
2019-04-30T04:10:03.748Z,89
2019-04-30T04:11:03.330Z,89
2019-04-30T04:12:03.541Z,89
2019-04-30T04:13:03.467Z,89
2019-04-30T04:14:03.593Z,89
2019-04-30T04:15:04.516Z,89
2019-04-30T04:16:03.366Z,89
2019-04-30T04:17:03.304Z,89
2019-04-30T04:18:03.598Z,89
2019-04-30T04:19:03.377Z,89
2019-04-30T04:20:03.019Z,89
2019-04-30T04:21:20.551Z,89
2019-04-30T04:22:04.438Z,89
2019-04-30T04:23:03.139Z,89
2019-04-30T04:24:02.905Z,89
2019-04-30T04:25:03.786Z,89
2019-04-30T04:26:02.860Z,89
2019-04-30T04:27:03.890Z,89
2019-04-30T04:28:03.592Z,89
2019-04-30T04:29:03.646Z,89
2019-04-30T04:30:03.706Z,89
2019-04-30T04:31:03.247Z,89
2019-04-30T04:32:03.481Z,89
2019-04-30T04:33:03.491Z,89
2019-04-30T04:34:03.678Z,89
2019-04-30T04:35:03.225Z,89
2019-04-30T04:36:03.526Z,89
2019-04-30T04:37:03.429Z,89
2019-04-30T04:38:03.329Z,89
2019-04-30T04:39:03.285Z,89
2019-04-30T04:40:03.196Z,89
2019-04-30T04:41:03.385Z,89
2019-04-30T04:42:03.291Z,89
2019-04-30T04:43:03.261Z,89
2019-04-30T04:44:02.931Z,89
2019-04-30T04:45:03.131Z,89
2019-04-30T04:46:03.750Z,89
2019-04-30T04:47:03.943Z,89
2019-04-30T04:48:03.900Z,89
2019-04-30T04:49:03.595Z,89
2019-04-30T04:50:04.021Z,89
2019-04-30T04:51:03.871Z,89
2019-04-30T04:52:04.635Z,89
2019-04-30T04:53:03.577Z,89
2019-04-30T04:54:03.810Z,89
2019-04-30T04:55:03.477Z,89
2019-04-30T04:56:03.409Z,89
2019-04-30T04:57:23.165Z,89
2019-04-30T04:58:03.483Z,89
2019-04-30T04:59:02.090Z,89
2019-04-30T05:00:10.940Z,89
2019-04-30T05:01:03.568Z,89
2019-04-30T05:02:03.015Z,89
2019-04-30T05:03:03.436Z,89
2019-04-30T05:04:03.192Z,89
2019-04-30T05:05:03.323Z,89
2019-04-30T05:06:03.141Z,89
2019-04-30T05:07:03.186Z,89
2019-04-30T05:08:03.183Z,89
2019-04-30T05:09:03.077Z,89
2019-04-30T05:10:03.016Z,89
2019-04-30T05:11:02.937Z,89
2019-04-30T05:12:03.918Z,89
2019-04-30T05:13:02.727Z,89
2019-04-30T05:14:02.889Z,89
2019-04-30T05:15:03.899Z,89
2019-04-30T05:16:03.561Z,89
2019-04-30T05:17:04.048Z,89
2019-04-30T05:18:03.508Z,89
2019-04-30T05:19:03.343Z,89
2019-04-30T05:20:03.510Z,90
2019-04-30T05:21:03.702Z,89
2019-04-30T05:22:03.498Z,89
2019-04-30T05:23:03.733Z,90
2019-04-30T05:24:03.564Z,90
2019-04-30T05:25:03.570Z,90
2019-04-30T05:26:03.610Z,90
2019-04-30T05:27:03.360Z,90
2019-04-30T05:28:03.383Z,90
2019-04-30T05:29:03.290Z,90
2019-04-30T05:30:03.126Z,90
2019-04-30T05:31:02.936Z,90
2019-04-30T05:32:03.225Z,90
2019-04-30T05:33:03.035Z,90
2019-04-30T05:34:10.341Z,90
2019-04-30T05:35:03.449Z,90
2019-04-30T05:36:03.489Z,90
2019-04-30T05:37:03.352Z,90
2019-04-30T05:38:03.327Z,90
2019-04-30T05:39:03.114Z,90
2019-04-30T05:40:02.998Z,90
2019-04-30T05:41:03.224Z,90
2019-04-30T05:42:02.735Z,90
2019-04-30T05:43:03.157Z,90
2019-04-30T05:44:02.939Z,90
2019-04-30T05:45:03.126Z,90
2019-04-30T05:46:02.961Z,90
2019-04-30T05:47:03.093Z,90
2019-04-30T05:48:03.077Z,90
2019-04-30T05:49:03.713Z,90
2019-04-30T05:50:03.939Z,90
2019-04-30T05:51:03.611Z,90
2019-04-30T05:52:03.104Z,90
2019-04-30T05:53:03.536Z,90
2019-04-30T05:54:03.411Z,90
2019-04-30T05:55:03.751Z,90
2019-04-30T05:56:03.474Z,90
2019-04-30T05:57:03.879Z,90
2019-04-30T05:58:03.814Z,90
2019-04-30T05:59:03.564Z,90
2019-04-30T06:00:03.677Z,90
2019-04-30T06:01:03.485Z,90
2019-04-30T06:02:03.635Z,90
2019-04-30T06:03:03.581Z,90
2019-04-30T06:04:03.226Z,90
2019-04-30T06:05:03.552Z,90
2019-04-30T06:06:03.245Z,90
2019-04-30T06:07:03.427Z,90
2019-04-30T06:08:02.914Z,90
2019-04-30T06:09:30.320Z,90
2019-04-30T06:11:03.200Z,90
2019-04-30T06:12:03.039Z,90
2019-04-30T06:13:03.244Z,90
2019-04-30T06:14:03.456Z,90
2019-04-30T06:15:03.233Z,90
2019-04-30T06:16:03.032Z,90
2019-04-30T06:17:02.979Z,90
2019-04-30T06:18:14.245Z,90
2019-04-30T06:19:03.034Z,90
2019-04-30T06:20:03.106Z,90
2019-04-30T06:21:03.494Z,90
2019-04-30T06:22:11.272Z,90
2019-04-30T06:23:03.693Z,90
2019-04-30T06:24:03.447Z,90
2019-04-30T06:25:04.196Z,90
2019-04-30T06:26:13.482Z,90
2019-04-30T06:27:03.789Z,90
2019-04-30T06:28:03.692Z,90
2019-04-30T06:29:03.774Z,90
2019-04-30T06:30:03.441Z,90
2019-04-30T06:31:03.574Z,90
2019-04-30T06:32:03.366Z,90
2019-04-30T06:33:03.898Z,90
2019-04-30T06:34:03.429Z,90
2019-04-30T06:35:03.444Z,90
2019-04-30T06:36:03.321Z,90
2019-04-30T06:37:03.432Z,90
2019-04-30T06:38:03.412Z,90
2019-04-30T06:39:03.495Z,90
2019-04-30T06:40:03.509Z,90
2019-04-30T06:41:02.899Z,90
2019-04-30T06:42:13.152Z,90
2019-04-30T06:43:03.095Z,90
2019-04-30T06:44:03.105Z,90
2019-04-30T06:45:03.786Z,90
2019-04-30T06:46:03.869Z,90
2019-04-30T06:47:02.893Z,90
2019-04-30T06:48:03.815Z,89
2019-04-30T06:49:03.683Z,89
2019-04-30T06:50:03.903Z,89
2019-04-30T06:51:03.619Z,89
2019-04-30T06:52:03.541Z,89
2019-04-30T06:53:03.327Z,89
2019-04-30T06:54:03.197Z,89
2019-04-30T06:55:03.328Z,89
2019-04-30T06:56:03.239Z,89
2019-04-30T06:57:03.353Z,89
2019-04-30T06:58:15.696Z,89
2019-04-30T06:59:03.392Z,89
2019-04-30T07:00:03.630Z,89
2019-04-30T07:01:03.258Z,89
2019-04-30T07:02:03.092Z,89
2019-04-30T07:03:03.392Z,89
2019-04-30T07:04:03.144Z,89
2019-04-30T07:05:03.463Z,89
2019-04-30T07:06:03.239Z,89
2019-04-30T07:07:02.831Z,89
2019-04-30T07:08:12.298Z,89
2019-04-30T07:09:02.980Z,89
2019-04-30T07:10:03.216Z,89
2019-04-30T07:11:11.484Z,89
2019-04-30T07:12:03.612Z,89
2019-04-30T07:13:03.954Z,88
2019-04-30T07:14:03.082Z,88
2019-04-30T07:15:04.057Z,88
2019-04-30T07:16:03.851Z,88
2019-04-30T07:17:03.775Z,88
2019-04-30T07:18:02.871Z,88
2019-04-30T07:19:03.781Z,88
2019-04-30T07:20:03.632Z,88
2019-04-30T07:21:03.674Z,88
2019-04-30T07:22:03.619Z,88
2019-04-30T07:23:03.686Z,88
2019-04-30T07:24:03.312Z,88
2019-04-30T07:25:03.712Z,88
2019-04-30T07:26:02.871Z,88
2019-04-30T07:27:03.405Z,88
2019-04-30T07:28:03.219Z,88
2019-04-30T07:29:03.262Z,88
2019-04-30T07:30:03.062Z,88
2019-04-30T07:31:15.088Z,88
2019-04-30T07:32:02.880Z,88
2019-04-30T07:33:04.025Z,88
2019-04-30T07:34:02.848Z,88
2019-04-30T07:35:03.824Z,88
2019-04-30T07:36:03.209Z,88
2019-04-30T07:37:24.901Z,88
2019-04-30T07:38:05.184Z,88
2019-04-30T07:39:03.759Z,88
2019-04-30T07:40:02.849Z,88
2019-04-30T07:41:03.560Z,88
2019-04-30T07:42:03.028Z,88
2019-04-30T07:43:03.424Z,88
2019-04-30T07:44:03.478Z,88
2019-04-30T07:45:03.611Z,88
2019-04-30T07:46:03.259Z,88
2019-04-30T07:47:03.271Z,87
2019-04-30T07:48:03.596Z,87
2019-04-30T07:49:03.153Z,87
2019-04-30T07:50:03.260Z,87
2019-04-30T07:51:03.113Z,87
2019-04-30T07:52:06.050Z,87
2019-04-30T07:53:11.989Z,87
2019-04-30T07:54:03.750Z,87
2019-04-30T07:55:03.071Z,87
2019-04-30T07:56:02.725Z,87
2019-04-30T07:57:02.957Z,86
2019-04-30T07:58:03.752Z,86
2019-04-30T07:59:03.745Z,86
2019-04-30T08:00:03.739Z,85
2019-04-30T08:01:03.785Z,85
2019-04-30T08:02:15.051Z,85
2019-04-30T08:03:03.605Z,85
2019-04-30T08:04:03.406Z,85
2019-04-30T08:05:03.395Z,85
2019-04-30T08:06:03.686Z,85
2019-04-30T08:07:03.839Z,84
2019-04-30T08:08:26.123Z,84
2019-04-30T08:09:04.146Z,84
2019-04-30T08:10:03.540Z,84
2019-04-30T08:11:03.127Z,84
2019-04-30T08:12:03.991Z,84
2019-04-30T08:13:16.444Z,83
2019-04-30T08:14:05.051Z,83
2019-04-30T08:15:03.328Z,83
2019-04-30T08:16:03.201Z,83
2019-04-30T08:17:03.179Z,83
2019-04-30T08:18:06.201Z,82
2019-04-30T08:19:03.235Z,82
2019-04-30T08:20:02.909Z,82
2019-04-30T08:21:03.357Z,82
2019-04-30T08:22:03.992Z,82
2019-04-30T08:23:37.657Z,81
2019-04-30T08:25:02.815Z,81
2019-04-30T08:26:03.905Z,80
2019-04-30T08:27:03.070Z,80
2019-04-30T08:28:03.058Z,80
2019-04-30T08:29:03.918Z,80
2019-04-30T08:30:03.878Z,80
2019-04-30T08:31:03.587Z,80
2019-04-30T08:32:03.727Z,80
2019-04-30T08:33:03.478Z,79
2019-04-30T08:34:03.859Z,79
2019-04-30T08:35:03.471Z,79
2019-04-30T08:36:03.669Z,79
2019-04-30T08:37:20.423Z,79
2019-04-30T08:38:03.487Z,79
2019-04-30T08:39:03.668Z,79
2019-04-30T08:40:03.774Z,79
2019-04-30T08:41:03.390Z,79
2019-04-30T08:42:03.410Z,80
2019-04-30T08:43:03.438Z,80
2019-04-30T08:44:03.505Z,80
2019-04-30T08:45:03.633Z,80
2019-04-30T08:46:03.247Z,80
2019-04-30T08:47:03.464Z,80
2019-04-30T08:48:03.214Z,80
2019-04-30T08:49:04.027Z,80
2019-04-30T08:50:04.478Z,80
2019-04-30T08:51:03.438Z,80
2019-04-30T08:52:02.714Z,80
2019-04-30T08:53:03.283Z,80
2019-04-30T08:54:03.119Z,80
2019-04-30T08:55:22.198Z,80
2019-04-30T08:56:03.890Z,80
2019-04-30T08:57:03.702Z,80
2019-04-30T08:58:15.436Z,80
2019-04-30T08:59:03.904Z,80
2019-04-30T09:00:03.959Z,80
2019-04-30T09:01:04.218Z,80
2019-04-30T09:02:16.802Z,80
2019-04-30T09:03:03.874Z,80
2019-04-30T09:04:03.703Z,80
2019-04-30T09:05:03.933Z,80
2019-04-30T09:06:03.486Z,80
2019-04-30T09:07:03.925Z,80
2019-04-30T09:08:03.918Z,80
2019-04-30T09:09:03.490Z,80
2019-04-30T09:10:05.216Z,79
2019-04-30T09:11:02.406Z,79
2019-04-30T09:12:03.303Z,80
2019-04-30T09:13:03.175Z,79
2019-04-30T09:14:03.410Z,79
2019-04-30T09:15:03.137Z,79
2019-04-30T09:16:03.342Z,79
2019-04-30T09:17:03.137Z,79
2019-04-30T09:18:12.836Z,79
2019-04-30T09:19:03.309Z,79
2019-04-30T09:20:03.225Z,79
2019-04-30T09:21:09.146Z,78
2019-04-30T09:22:15.441Z,78
2019-04-30T09:23:03.476Z,78
2019-04-30T09:24:03.148Z,78
2019-04-30T09:25:03.480Z,78
2019-04-30T09:26:03.014Z,78
2019-04-30T09:27:02.875Z,78
2019-04-30T09:28:04.690Z,78
2019-04-30T09:29:03.058Z,77
2019-04-30T09:30:03.171Z,77
2019-04-30T09:31:02.964Z,77
2019-04-30T09:32:03.157Z,77
2019-04-30T09:33:03.250Z,77
2019-04-30T09:34:21.313Z,76
2019-04-30T09:35:03.348Z,76
2019-04-30T09:36:03.178Z,76
2019-04-30T09:37:02.863Z,76
2019-04-30T09:38:03.957Z,76
2019-04-30T09:39:02.903Z,76
2019-04-30T09:40:21.328Z,75
2019-04-30T09:41:03.636Z,75
2019-04-30T09:42:02.953Z,75
2019-04-30T09:43:03.897Z,75
2019-04-30T09:44:03.054Z,75
2019-04-30T09:45:03.742Z,74
2019-04-30T09:46:29.615Z,74
2019-04-30T09:48:03.146Z,74
2019-04-30T09:49:03.829Z,74
2019-04-30T09:50:03.988Z,74
2019-04-30T09:51:04.000Z,73
2019-04-30T09:52:03.724Z,73
2019-04-30T09:53:03.903Z,73
2019-04-30T09:54:06.531Z,73
2019-04-30T09:55:04.193Z,73
2019-04-30T09:56:03.512Z,73
2019-04-30T09:57:03.715Z,73
2019-04-30T09:58:21.337Z,73
2019-04-30T09:59:03.145Z,73
2019-04-30T10:00:03.245Z,73
2019-04-30T10:01:02.986Z,73
2019-04-30T10:02:03.684Z,73
2019-04-30T10:03:05.042Z,73
2019-04-30T10:04:05.530Z,73
2019-04-30T10:05:04.469Z,73
2019-04-30T10:06:03.799Z,73
2019-04-30T10:07:03.053Z,73
2019-04-30T10:08:03.706Z,73
2019-04-30T10:09:03.504Z,72
2019-04-30T10:10:03.406Z,72
2019-04-30T10:11:03.595Z,71
2019-04-30T10:12:03.703Z,71
2019-04-30T10:13:03.635Z,71
2019-04-30T10:14:03.836Z,71
2019-04-30T10:15:03.892Z,71
2019-04-30T10:16:03.092Z,71
2019-04-30T10:17:03.554Z,71
2019-04-30T10:18:03.378Z,69
2019-04-30T10:19:03.226Z,70
2019-04-30T10:20:03.587Z,70
2019-04-30T10:21:03.070Z,70
2019-04-30T10:22:03.354Z,70
2019-04-30T10:23:03.320Z,70
2019-04-30T10:24:16.081Z,70
2019-04-30T10:25:03.036Z,70
2019-04-30T10:26:03.523Z,70
2019-04-30T10:27:03.145Z,70
2019-04-30T10:28:03.152Z,70
2019-04-30T10:29:03.017Z,69
2019-04-30T10:30:03.125Z,69
2019-04-30T10:31:03.686Z,69
2019-04-30T10:32:03.535Z,69
2019-04-30T10:33:02.910Z,69
2019-04-30T10:34:03.608Z,69
2019-04-30T10:35:03.436Z,69
2019-04-30T10:36:03.654Z,69
2019-04-30T10:37:03.360Z,69
2019-04-30T10:38:02.106Z,69
2019-04-30T10:39:03.475Z,70
2019-04-30T10:40:03.153Z,70
2019-04-30T10:41:03.923Z,70
2019-04-30T10:42:02.361Z,70
2019-04-30T10:43:03.363Z,70
2019-04-30T10:44:03.082Z,69
2019-04-30T10:45:03.162Z,69
2019-04-30T10:46:03.568Z,69
2019-04-30T10:47:03.338Z,69
2019-04-30T10:48:03.152Z,69
2019-04-30T10:49:02.927Z,69
2019-04-30T10:50:03.346Z,69
2019-04-30T10:51:03.132Z,69
2019-04-30T10:52:03.128Z,69
2019-04-30T10:53:02.639Z,69
2019-04-30T10:54:03.014Z,69
2019-04-30T10:55:04.860Z,69
2019-04-30T10:56:03.355Z,68
2019-04-30T10:57:03.024Z,68
2019-04-30T10:58:03.020Z,69
2019-04-30T10:59:03.480Z,68
2019-04-30T11:00:04.244Z,68
2019-04-30T11:01:02.552Z,68
2019-04-30T11:02:03.780Z,68
2019-04-30T11:03:03.691Z,68
2019-04-30T11:04:03.817Z,68
2019-04-30T11:05:03.649Z,68
2019-04-30T11:06:03.270Z,68
2019-04-30T11:07:02.915Z,69
2019-04-30T11:08:03.042Z,69
2019-04-30T11:09:03.014Z,69
2019-04-30T11:10:03.240Z,69
2019-04-30T11:11:03.547Z,69
2019-04-30T11:12:03.400Z,69
2019-04-30T11:13:03.290Z,69
2019-04-30T11:14:03.242Z,69
2019-04-30T11:15:03.607Z,69
2019-04-30T11:16:15.822Z,69
2019-04-30T11:17:04.362Z,69
2019-04-30T11:18:04.112Z,68
2019-04-30T11:19:04.474Z,69
2019-04-30T11:20:03.951Z,69
2019-04-30T11:21:04.285Z,68
2019-04-30T11:22:03.931Z,68
2019-04-30T11:23:15.740Z,69
2019-04-30T11:24:03.808Z,69
2019-04-30T11:25:04.319Z,69
2019-04-30T11:26:05.265Z,69
2019-04-30T11:27:05.412Z,69
2019-04-30T11:28:06.615Z,69
2019-04-30T11:29:04.678Z,69
2019-04-30T11:30:18.349Z,69
2019-04-30T11:31:04.069Z,69
2019-04-30T11:32:04.324Z,68
2019-04-30T11:33:03.875Z,68
2019-04-30T11:34:03.065Z,68
2019-04-30T11:35:03.654Z,68
2019-04-30T11:36:05.321Z,68
2019-04-30T11:37:03.755Z,68
2019-04-30T11:38:03.242Z,68
2019-04-30T11:39:03.294Z,68
2019-04-30T11:40:03.613Z,68
2019-04-30T11:41:03.926Z,68
2019-04-30T11:42:02.940Z,68
2019-04-30T11:43:03.120Z,68
2019-04-30T11:44:03.694Z,68
2019-04-30T11:45:03.907Z,68
2019-04-30T11:46:02.815Z,68
2019-04-30T11:47:03.815Z,68
2019-04-30T11:48:03.347Z,68
2019-04-30T11:49:03.350Z,68
2019-04-30T11:50:03.590Z,68
2019-04-30T11:51:03.868Z,68
2019-04-30T11:52:03.789Z,68
2019-04-30T11:53:30.767Z,68
2019-04-30T11:54:03.520Z,68
2019-04-30T11:55:03.012Z,68
2019-04-30T11:56:03.551Z,68
2019-04-30T11:57:03.715Z,67
2019-04-30T11:58:03.475Z,67
2019-04-30T11:59:03.199Z,67
2019-04-30T12:00:03.671Z,67
2019-04-30T12:01:03.385Z,67
2019-04-30T12:02:03.641Z,67
2019-04-30T12:03:03.648Z,67
2019-04-30T12:04:03.121Z,67
2019-04-30T12:05:05.459Z,67
2019-04-30T12:06:03.680Z,67
2019-04-30T12:07:03.744Z,67
2019-04-30T12:08:03.047Z,67
2019-04-30T12:09:04.010Z,67
2019-04-30T12:10:03.486Z,67
2019-04-30T12:11:01.834Z,67
2019-04-30T12:12:03.287Z,67
2019-04-30T12:13:02.553Z,67
2019-04-30T12:14:02.942Z,67
2019-04-30T12:15:03.889Z,67
2019-04-30T12:16:03.677Z,67
2019-04-30T12:17:03.486Z,67
2019-04-30T12:18:03.451Z,67
2019-04-30T12:19:04.000Z,67
2019-04-30T12:20:03.855Z,67
2019-04-30T12:21:04.150Z,67
2019-04-30T12:22:03.785Z,67
2019-04-30T12:23:02.469Z,67
2019-04-30T12:24:03.494Z,67
2019-04-30T12:25:05.772Z,66
2019-04-30T12:26:03.393Z,66
2019-04-30T12:27:03.263Z,66
2019-04-30T12:28:03.480Z,66
2019-04-30T12:29:02.933Z,66
2019-04-30T12:30:03.202Z,66
2019-04-30T12:31:06.190Z,66
2019-04-30T12:32:02.895Z,66
2019-04-30T12:33:02.522Z,66
2019-04-30T12:34:02.991Z,66
2019-04-30T12:35:03.223Z,66
2019-04-30T12:36:03.128Z,66
2019-04-30T12:37:02.937Z,66
2019-04-30T12:38:03.443Z,66
2019-04-30T12:39:03.792Z,66
2019-04-30T12:40:03.174Z,65
2019-04-30T12:41:03.730Z,66
2019-04-30T12:42:02.787Z,66
2019-04-30T12:43:03.342Z,66
2019-04-30T12:44:02.906Z,66
2019-04-30T12:45:03.052Z,66
2019-04-30T12:46:05.839Z,66
2019-04-30T12:47:03.673Z,66
2019-04-30T12:48:03.642Z,66
2019-04-30T12:49:03.829Z,66
2019-04-30T12:50:03.513Z,66
2019-04-30T12:51:03.649Z,66
2019-04-30T12:52:03.532Z,66
2019-04-30T12:53:03.838Z,66
2019-04-30T12:54:03.196Z,66
2019-04-30T12:55:16.038Z,66
2019-04-30T12:56:03.437Z,66
2019-04-30T12:57:03.121Z,66
2019-04-30T12:58:03.662Z,66
2019-04-30T12:59:03.019Z,66
2019-04-30T13:00:03.756Z,66
2019-04-30T13:01:03.664Z,66
2019-04-30T13:02:03.562Z,66
2019-04-30T13:03:03.107Z,65
2019-04-30T13:04:03.330Z,65
2019-04-30T13:05:03.139Z,66
2019-04-30T13:06:06.449Z,65
2019-04-30T13:07:05.291Z,65
2019-04-30T13:08:05.827Z,65
2019-04-30T13:09:05.642Z,65
2019-04-30T13:10:05.579Z,65
2019-04-30T13:11:04.795Z,65
2019-04-30T13:12:05.485Z,65
2019-04-30T13:13:05.636Z,65
2019-04-30T13:14:06.254Z,65
2019-04-30T13:15:01.936Z,65
2019-04-30T13:16:03.390Z,65
2019-04-30T13:17:03.910Z,65
2019-04-30T13:18:03.756Z,65
2019-04-30T13:19:03.579Z,65
2019-04-30T13:20:03.663Z,65
2019-04-30T13:21:03.870Z,65
2019-04-30T13:22:03.142Z,65
2019-04-30T13:23:03.515Z,65
2019-04-30T13:24:03.590Z,65
2019-04-30T13:25:03.975Z,65
2019-04-30T13:26:03.578Z,65
2019-04-30T13:27:03.368Z,65
2019-04-30T13:28:03.417Z,65
2019-04-30T13:29:03.265Z,65
2019-04-30T13:30:03.442Z,65
2019-04-30T13:31:03.326Z,65
2019-04-30T13:32:02.939Z,64
2019-04-30T13:33:02.924Z,64
2019-04-30T13:34:03.312Z,64
2019-04-30T13:35:02.793Z,64
2019-04-30T13:36:03.893Z,64
2019-04-30T13:37:02.754Z,64
2019-04-30T13:38:03.745Z,64
2019-04-30T13:39:03.865Z,65
2019-04-30T13:40:04.079Z,65
2019-04-30T13:41:03.861Z,64
2019-04-30T13:42:20.752Z,64
2019-04-30T13:43:03.667Z,64
2019-04-30T13:44:03.535Z,64
2019-04-30T13:45:03.886Z,64
2019-04-30T13:46:02.937Z,64
2019-04-30T13:47:03.572Z,64
2019-04-30T13:48:03.552Z,64
2019-04-30T13:49:03.651Z,64
2019-04-30T13:50:03.442Z,64
2019-04-30T13:51:03.535Z,64
2019-04-30T13:52:03.505Z,64
2019-04-30T13:53:02.943Z,64
2019-04-30T13:54:03.911Z,64
2019-04-30T13:55:03.338Z,64
2019-04-30T13:56:03.242Z,64
2019-04-30T13:57:03.202Z,64
2019-04-30T13:58:03.268Z,64
2019-04-30T13:59:02.818Z,64
2019-04-30T14:00:03.215Z,64
2019-04-30T14:01:03.051Z,64
2019-04-30T14:02:02.646Z,64
2019-04-30T14:03:03.484Z,64
2019-04-30T14:04:02.965Z,64
2019-04-30T14:05:03.869Z,64
2019-04-30T14:06:03.270Z,64
2019-04-30T14:07:03.634Z,64
2019-04-30T14:08:03.883Z,64
2019-04-30T14:09:03.772Z,64
2019-04-30T14:10:03.575Z,64
2019-04-30T14:11:03.777Z,64
2019-04-30T14:12:03.099Z,64
2019-04-30T14:13:03.510Z,64
2019-04-30T14:14:03.584Z,64
2019-04-30T14:15:03.601Z,64
2019-04-30T14:16:03.531Z,64
2019-04-30T14:17:03.439Z,64
2019-04-30T14:18:03.315Z,64